Nearby METAR Reports

 

KTEB - Teterboro, New Jersey, USA
Distance from station: ENE 2mi, 4km
Updated: 07/21/2018 6:51pm
Overcast
Overcast
 Wind from E
Wind: E 13 mph , 20 km/h, Gust: 20 mph , 31 km/h
Temperature: 72°F , 22°C
Dew Point: 61°F , 16°C
Humidity: 69%
Barometer: 29.98 inHg , 1015.2 hPa
Clouds: Overcast
Visibility: 10 miles , 16 km
Cloud details: Overcast 5500 ft
2018/07/21 22:51 KTEB 212251Z 08011G17KT 10SM OVC055 22/16 A2998 RMK AO2 SLP152 T02170161
KNYC - Nyc/Central Park, New York, USA
Distance from station: SE 8mi, 13km
Updated: 07/21/2018 6:51pm
Overcast
Overcast
 Wind from E
Wind: E 12 mph , 19 km/h, Gust: 22 mph , 35 km/h
Temperature: 70°F , 21°C
Dew Point: 61°F , 16°C
Humidity: 73%
Barometer: 30.02 inHg , 1016.6 hPa
Clouds: Overcast
Visibility: 10 miles , 16 km
Cloud details: Mostly cloudy 4500 ft
Overcast 5000 ft
2018/07/21 22:51 KNYC 212251Z AUTO 08010G19KT 050V110 10SM BKN045 OVC050 21/16 A3002 RMK AO2 SLP155 T02110161 $
 
KCDW - Caldwell, New Jersey, USA
Distance from station: WNW 10mi, 17km
Updated: 07/21/2018 6:53pm
Overcast
Overcast
 Wind from ENE
Wind: ENE 18 mph , 30 km/h, Gust: 24 mph , 39 km/h
Temperature: 70°F , 21°C
Dew Point: 61°F , 16°C
Humidity: 73%
Barometer: 29.99 inHg , 1015.6 hPa
Clouds: Overcast
Visibility: 10 miles , 16 km
Cloud details: Overcast 5000 ft
2018/07/21 22:53 KCDW 212253Z 07016G21KT 10SM OVC050 21/16 A2999 RMK AO2 RAB34E45 SLP161 P0000 T02110156
KLGA - Nyc/La Guardia, New York, USA
Distance from station: ESE 12mi, 19km
Updated: 07/21/2018 6:51pm
Overcast
Overcast
 Wind from NE
Wind: NE 20 mph , 31 km/h
Temperature: 72°F , 22°C
Dew Point: 63°F , 17°C
Humidity: 73%
Barometer: 29.99 inHg , 1015.6 hPa
Clouds: Overcast
Visibility: 10 miles , 16 km
Cloud details: Few Clouds 3500 ft
Mostly cloudy 4600 ft
Overcast 25000 ft
2018/07/21 22:51 KLGA 212251Z 05017KT 10SM FEW035 BKN046 OVC250 22/17 A2999 RMK AO2 SLP154 T02220167
 
KEWR - Newark, New Jersey, USA
Distance from station: SSW 12mi, 20km
Updated: 07/21/2018 6:51pm
Light rain, Overcast
Light rain, Overcast
 Wind from NE
Wind: NE 13 mph , 20 km/h
Temperature: 73°F , 23°C
Dew Point: 59°F , 15°C
Humidity: 61%
Barometer: 29.97 inHg , 1014.9 hPa
Summary: Light rain
Clouds: Overcast
Visibility: 10 miles , 16 km
Cloud details: Mostly cloudy 4500 ft
Overcast 6000 ft
2018/07/21 22:51 KEWR 212251Z 05011KT 10SM -RA BKN045 OVC060 23/15 A2997 RMK AO2 RAB51 SLP149 P0000 T02280150
KMMU - Morristown Muni, New Jersey, USA
Distance from station: WSW 18mi, 29km
Updated: 07/21/2018 6:45pm
Overcast
Overcast
 Wind from E
Wind: E 12 mph , 19 km/h, Gust: 16 mph , 26 km/h
Temperature: 70°F , 21°C
Dew Point: 63°F , 17°C
Humidity: 78%
Barometer: 29.99 inHg , 1015.6 hPa
Clouds: Overcast
Visibility: 10 miles , 16 km
Cloud details: Overcast 5000 ft
2018/07/21 22:45 KMMU 212245Z 08010G14KT 10SM OVC050 21/17 A2999
 
KJFK - Nyc/Jfk Arpt, New York, USA
Distance from station: SE 23mi, 36km
Updated: 07/21/2018 7:15pm
Light rain, Overcast
Light rain, Overcast
 Wind from ENE
Wind: ENE 18 mph , 30 km/h, Gust: 25 mph , 41 km/h
Temperature: 72°F , 22°C
Dew Point: 57°F , 14°C
Humidity: 61%
Barometer: 29.98 inHg , 1015.2 hPa
Summary: Light rain
Clouds: Overcast
Visibility: 10 miles , 16 km
Cloud details: Mostly cloudy 2600 ft
Overcast 3400 ft
2018/07/21 23:15 KJFK 212315Z 07016G22KT 10SM -RA BKN026 OVC034 22/14 A2998 RMK AO2 P0000 T02170144
KHPN - White Plains, New York, USA
Distance from station: NE 25mi, 40km
Updated: 07/21/2018 6:56pm
Partly cloudy
Partly cloudy
 Wind from E
Wind: E 9 mph , 15 km/h, Gust: 18 mph , 30 km/h
Temperature: 68°F , 20°C
Dew Point: 57°F , 14°C
Humidity: 69%
Barometer: 30.02 inHg , 1016.6 hPa
Clouds: Partly cloudy
Visibility: 10 miles , 16 km
Cloud details: Partly cloudy 4800 ft
2018/07/21 22:56 KHPN 212256Z 08008G16KT 040V110 10SM SCT048 20/14 A3002 RMK AO2 SLP161 T02000144
 
KSMQ - Somerville, New Jersey, USA
Distance from station: WSW 34mi, 55km
Updated: 07/21/2018 6:53pm
Rain, Mist, Overcast
Rain, Mist, Overcast
 Wind from calm
Wind: Calm
Temperature: 66°F , 19°C
Dew Point: 64°F , 18°C
Humidity: 94%
Barometer: 29.95 inHg , 1014.2 hPa
Summary: Rain, Mist
Clouds: Overcast
Visibility: 4 miles , 6 km
Cloud details: Mostly cloudy 4700 ft
Overcast 5500 ft
2018/07/21 22:53 KSMQ 212253Z AUTO 00000KT 4SM RA BR BKN047 OVC055 19/18 A2995 RMK AO2 SLP142 P0005 T01890183
K12N - Andover, New Jersey, USA
Distance from station: WNW 36mi, 57km
Updated: 07/21/2018 6:54pm

 Wind from varies
Wind: varies 3 mph , 6 km/h
Temperature: 66°F , 19°C
Dew Point: 61°F , 16°C
Humidity: 83%
Barometer: 30.00 inHg , 1015.9 hPa
2018/07/21 22:54 K12N 212254Z AUTO VRB03KT 19/16 A3000 RMK AO1 SLP154 P0001 T01940161
 
KFRG - Farmingdale, New York, USA
Distance from station: ESE 36mi, 58km
Updated: 07/21/2018 7:24pm
Overcast
Overcast
 Wind from E
Wind: E 9 mph , 15 km/h, Gust: 22 mph , 35 km/h
Temperature: 70°F , 21°C
Dew Point: 55°F , 13°C
Humidity: 60%
Barometer: 29.99 inHg , 1015.6 hPa
Clouds: Overcast
Visibility: 10 miles , 16 km
Cloud details: Mostly cloudy 2500 ft
Overcast 3000 ft
2018/07/21 23:24 KFRG 212324Z 08008G19KT 10SM BKN025 OVC030 21/13 A2999 RMK AO2 T02110133
KFWN - Sussex, New Jersey, USA
Distance from station: NW 37mi, 60km
Updated: 07/21/2018 6:53pm
Mostly cloudy
Mostly cloudy
 Wind from NE
Wind: NE 10 mph , 17 km/h
Temperature: 70°F , 21°C
Dew Point: 55°F , 13°C
Humidity: 60%
Barometer: 30.01 inHg , 1016.3 hPa
Clouds: Mostly cloudy
Visibility: 10 miles , 16 km
Cloud details: Few Clouds 4600 ft
Partly cloudy 8500 ft
Mostly cloudy 11000 ft
2018/07/21 22:53 KFWN 212253Z AUTO 05009KT 10SM FEW046 SCT085 BKN110 21/13 A3001 RMK AO2 SLP159 T02110133
 
KSWF - Newburgh/Stewart, New York, USA
Distance from station: 0 45mi, 72km
Updated: 07/21/2018 6:45pm
Overcast
Overcast
 Wind from ESE
Wind: ESE 8 mph , 13 km/h
Temperature: 72°F , 22°C
Dew Point: 57°F , 14°C
Humidity: 61%
Barometer: 30.04 inHg , 1017.3 hPa
Clouds: Overcast
Visibility: 10 miles , 16 km
Cloud details: Overcast 10000 ft
2018/07/21 22:45 KSWF 212245Z 12007KT 10SM OVC100 22/14 A3004
KMGJ - Montgomery, New York, USA
Distance from station: NNW 47mi, 75km
Updated: 07/21/2018 6:54pm
Clear
Clear
 Wind from E
Wind: E 10 mph , 17 km/h
Temperature: 70°F , 21°C
Dew Point: 55°F , 13°C
Humidity: 60%
Barometer: 30.03 inHg , 1016.9 hPa
Clouds: Clear
Visibility: 10 miles , 16 km
2018/07/21 22:54 KMGJ 212254Z AUTO 10009KT 10SM CLR 21/13 A3003 RMK AO2 SLP167 T02110128
 
KBLM - Belmar/Farmdale, New Jersey, USA
Distance from station: S 47mi, 76km
Updated: 07/21/2018 6:56pm
Rain, Mist, Overcast
Rain, Mist, Overcast
 Wind from ENE
Wind: ENE 16 mph , 26 km/h, Gust: 26 mph , 43 km/h
Temperature: 68°F , 20°C
Dew Point: 66°F , 19°C
Humidity: 94%
Barometer: 29.94 inHg , 1013.9 hPa
Summary: Rain, Mist
Clouds: Overcast
Visibility: 5 miles , 8 km
Cloud details: Overcast 1100 ft
2018/07/21 22:56 KBLM 212256Z AUTO 06014G23KT 5SM RA BR OVC011 20/19 A2994 RMK AO2 SLP141 P0009 T02000189
KDXR - Danbury, Connecticut, USA
Distance from station: NE 47mi, 76km
Updated: 07/21/2018 6:53pm
Clear
Clear
 Wind from ESE
Wind: ESE 8 mph , 13 km/h
Temperature: 68°F , 20°C
Dew Point: 57°F , 14°C
Humidity: 69%
Barometer: 30.06 inHg , 1017.9 hPa
Clouds: Clear
Visibility: 10 miles , 16 km
2018/07/21 22:53 KDXR 212253Z 11007KT 10SM CLR 20/14 A3006 RMK AO2 SLP177 T02000144
 
KISP - Islip, New York, USA
Distance from station: E 52mi, 83km
Updated: 07/21/2018 6:56pm
Overcast
Overcast
 Wind from E
Wind: E 15 mph , 24 km/h, Gust: 24 mph , 39 km/h
Temperature: 70°F , 21°C
Dew Point: 57°F , 14°C
Humidity: 64%
Barometer: 30.01 inHg , 1016.3 hPa
Clouds: Overcast
Visibility: 10 miles , 16 km
Cloud details: Few Clouds 1700 ft
Mostly cloudy 2600 ft
Overcast 4000 ft
2018/07/21 22:56 KISP 212256Z 08013G21KT 10SM FEW017 BKN026 OVC040 21/14 A3001 RMK AO2 SLP162 T02110144
KBDR - Bridgeport, Connecticut, USA
Distance from station: ENE 54mi, 87km
Updated: 07/21/2018 6:52pm
Mostly cloudy
Mostly cloudy
 Wind from E
Wind: E 22 mph , 35 km/h
Temperature: 70°F , 21°C
Dew Point: 63°F , 17°C
Humidity: 78%
Barometer: 30.04 inHg , 1017.3 hPa
Clouds: Mostly cloudy
Visibility: 10 miles , 16 km
Cloud details: Mostly cloudy 4900 ft
2018/07/21 22:52 KBDR 212252Z 08019KT 10SM BKN049 21/17 A3004 RMK AO2 SLP171 T02110167
 
KTTN - Trenton, New Jersey, USA
Distance from station: SW 55mi, 88km
Updated: 07/21/2018 7:12pm
Rain, Mist, Overcast
Rain, Mist, Overcast
 Wind from NE
Wind: NE 20 mph , 31 km/h, Gust: 25 mph , 41 km/h
Temperature: 66°F , 19°C
Dew Point: 64°F , 18°C
Humidity: 94%
Barometer: 29.91 inHg , 1012.9 hPa
Summary: Rain, Mist
Clouds: Overcast
Visibility: 3 miles , 5 km
Cloud details: Mostly cloudy 800 ft
Mostly cloudy 1500 ft
Overcast 4400 ft
2018/07/21 23:12 KTTN 212312Z 05017G22KT 3SM RA BR BKN008 BKN015 OVC044 19/18 A2991 RMK AO2 P0001 T01890178
KPOU - Poughkeepsie, New York, USA
Distance from station: N 55mi, 89km
Updated: 07/21/2018 6:53pm
Clear
Clear
 Wind from varies
Wind: varies 5 mph , 7 km/h
Temperature: 72°F , 22°C
Dew Point: 57°F , 14°C
Humidity: 61%
Barometer: 30.02 inHg , 1016.6 hPa
Clouds: Clear
Visibility: 10 miles , 16 km
2018/07/21 22:53 KPOU 212253Z VRB04KT 10SM CLR 22/14 A3002 RMK AO2 SLP161 T02220144
 
KNEL - Lakehurst Nas, New Jersey, USA
Distance from station: SSW 59mi, 95km
Updated: 07/21/2018 7:00pm
Overcast
Overcast
 
Barometer: 29.90 inHg , 1012.5 hPa
Clouds: Overcast
Visibility: 1 1/4 miles , 2 km
Cloud details: Mostly cloudy 800 ft
Mostly cloudy 1100 ft
Overcast 2700 ft
2018/07/21 23:00 KNEL 212300Z AUTO 1 1/4SM BKN008 BKN011 OVC027 A2990 RMK AO2 SLPNO PNO
KWRI - Wrightst/Mcguire, New Jersey, USA
Distance from station: SSW 63mi, 102km
Updated: 07/21/2018 7:06pm
Light rain, Mist, Overcast
Light rain, Mist, Overcast
 Wind from NE
Wind: NE 17 mph , 28 km/h, Gust: 24 mph , 39 km/h
Temperature: 66°F , 19°C
Dew Point: 66°F , 19°C
Humidity: 100%
Barometer: 29.86 inHg , 1011.2 hPa
Summary: Light rain, Mist
Clouds: Overcast
Visibility: 3 miles , 5 km
Cloud details: Overcast 700 ft
2018/07/21 23:06 KWRI 212306Z AUTO 04015G21KT 3SM -RA BR OVC007 19/19 A2986 RMK AO2 SLP111
 
KHWV - Shirley, New York, USA
Distance from station: E 64mi, 103km
Updated: 07/21/2018 7:22pm
Light rain, Overcast
Light rain, Overcast
 Wind from E
Wind: E 9 mph , 15 km/h
Temperature: 70°F , 21°C
Dew Point: 63°F , 17°C
Humidity: 78%
Barometer: 30.03 inHg , 1016.9 hPa
Summary: Light rain
Clouds: Overcast
Visibility: 10 miles , 16 km
Cloud details: Mostly cloudy 2700 ft
Mostly cloudy 3200 ft
Overcast 4200 ft
2018/07/21 23:22 KHWV 212322Z AUTO 09008KT 050V120 10SM -RA BKN027 BKN032 OVC042 21/17 A3003 RMK AO2 RAB22 P0000 T02060167
KMJX - Toms River, New Jersey, USA
Distance from station: S 64mi, 104km
Updated: 07/21/2018 6:56pm
Rain, Mist, Overcast
Rain, Mist, Overcast
 Wind from ENE
Wind: ENE 17 mph , 28 km/h, Gust: 26 mph , 43 km/h
Temperature: 70°F , 21°C
Dew Point: 70°F , 21°C
Humidity: 100%
Barometer: 29.91 inHg , 1012.9 hPa
Summary: Rain, Mist
Clouds: Overcast
Visibility: 5 miles , 8 km
Cloud details: Overcast 500 ft
2018/07/21 22:56 KMJX 212256Z AUTO 07015G23KT 5SM RA BR OVC005 21/21 A2991 RMK AO2 SLP132 P0026 T02060206
 
KDYL - Doylestown, Pennsylvania, USA
Distance from station: SW 65mi, 104km
Updated: 07/21/2018 6:54pm
Rain, Mist, Overcast
Rain, Mist, Overcast
 Wind from NE
Wind: NE 12 mph , 19 km/h, Gust: 17 mph , 28 km/h
Temperature: 63°F , 17°C
Dew Point: 63°F , 17°C
Humidity: 100%
Barometer: 29.93 inHg , 1013.5 hPa
Summary: Rain, Mist
Clouds: Overcast
Visibility: 6 miles , 10 km
Cloud details: Few Clouds 900 ft
Partly cloudy 1600 ft
Overcast 3500 ft
2018/07/21 22:54 KDYL 212254Z AUTO 04010G15KT 6SM RA BR FEW009 SCT016 OVC035 17/17 A2993 RMK AO2 SLP134 P0011 T01720167
KOXC - Oxford/Waterbury, Connecticut, USA
Distance from station: NE 65mi, 105km
Updated: 07/21/2018 6:51pm
Partly cloudy
Partly cloudy
 Wind from E
Wind: E 7 mph , 11 km/h
Temperature: 70°F , 21°C
Dew Point: 57°F , 14°C
Humidity: 64%
Barometer: 30.07 inHg , 1018.3 hPa
Clouds: Partly cloudy
Visibility: 10 miles , 16 km
Cloud details: Partly cloudy 4700 ft
2018/07/21 22:51 KOXC 212251Z 10006KT 10SM SCT047 21/14 A3007 RMK AO2 SLP191 T02110139
 
KMSV - Monticello, New York, USA
Distance from station: NNW 69mi, 111km
Updated: 07/21/2018 6:56pm
Mostly cloudy
Mostly cloudy
 Wind from ESE
Wind: ESE 8 mph , 13 km/h
Barometer: 30.06 inHg , 1017.9 hPa
Clouds: Mostly cloudy
Visibility: 10 miles , 16 km
Cloud details: Mostly cloudy 7500 ft
2018/07/21 22:56 KMSV 212256Z AUTO 11007KT 10SM BKN075 A3006 RMK AO2 SLPNO FZRANO $
KHVN - New Haven/Tweed, Connecticut, USA
Distance from station: ENE 70mi, 112km
Updated: 07/21/2018 6:53pm
Mostly cloudy
Mostly cloudy
 Wind from E
Wind: E 13 mph , 20 km/h, Gust: 23 mph , 37 km/h
Temperature: 70°F , 21°C
Dew Point: 63°F , 17°C
Humidity: 78%
Barometer: 30.06 inHg , 1017.9 hPa
Clouds: Mostly cloudy
Visibility: 10 miles , 16 km
Cloud details: Mostly cloudy 5500 ft
2018/07/21 22:53 KHVN 212253Z 10011G20KT 10SM BKN055 21/17 A3006 RMK AO2 SLP178 T02110167
 
KMPO - Mt. Pocono, Pennsylvania, USA
Distance from station: WNW 70mi, 113km
Updated: 07/21/2018 6:53pm
Light rain, Mostly cloudy
Light rain, Mostly cloudy
 Wind from E
Wind: E 9 mph , 15 km/h
Temperature: 61°F , 16°C
Dew Point: 59°F , 15°C
Humidity: 94%
Barometer: 30.01 inHg , 1016.3 hPa
Summary: Light rain
Clouds: Mostly cloudy
Visibility: 10 miles , 16 km
Cloud details: Mostly cloudy 11000 ft
2018/07/21 22:53 KMPO 212253Z AUTO 09008KT 10SM -RA BKN110 16/15 A3001 RMK AO2 SLP162 P0003 T01560150
KPNE - Philadelphia/Ne, Pennsylvania, USA
Distance from station: SW 72mi, 116km
Updated: 07/21/2018 7:02pm
Light rain, Mist, Overcast
Light rain, Mist, Overcast
 Wind from NE
Wind: NE 14 mph , 22 km/h
Temperature: 68°F , 20°C
Dew Point: 64°F , 18°C
Humidity: 88%
Barometer: 29.92 inHg , 1013.2 hPa
Summary: Light rain, Mist
Clouds: Overcast
Visibility: 4 miles , 6 km
Cloud details: Mostly cloudy 1200 ft
Overcast 2500 ft
2018/07/21 23:02 KPNE 212302Z 05012KT 4SM -RA BR BKN012 OVC025 20/18 A2992 RMK AO2 RAB2256 P0000 T02000178
 
KABE - Allentown, Pennsylvania, USA
Distance from station: W 73mi, 117km
Updated: 07/21/2018 7:25pm
Heavy rain, Mist, Overcast
Heavy rain, Mist, Overcast
 Wind from E
Wind: E 12 mph , 19 km/h
Temperature: 64°F , 18°C
Dew Point: 61°F , 16°C
Humidity: 88%
Barometer: 29.95 inHg , 1014.2 hPa
Summary: Heavy rain, Mist
Clouds: Overcast
Visibility: 2 1/2 miles , 4 km
Cloud details: Mostly cloudy 1100 ft
Mostly cloudy 1900 ft
Overcast 4700 ft
2018/07/21 23:25 KABE 212325Z 08010KT 2 1/2SM +RA BR BKN011 BKN019 OVC047 18/16 A2995 RMK AO2 P0008 T01830161
KUKT - Quakertown Arp, Pennsylvania, USA
Distance from station: WSW 74mi, 119km
Updated: 07/19/2018 1:15pm
NOT Current
Clear
Clear
 Wind from calm
Wind: Calm
Temperature: 79°F , 26°C
Dew Point: 52°F , 11°C
Humidity: 39%
Barometer: 30.12 inHg , 1020 hPa
Clouds: Clear
Visibility: 10 miles , 16 km
2018/07/19 17:15 KUKT 191715Z AUTO 00000KT 10SM CLR 26/11 A3012 RMK A01
 
KVAY - Mount Holly, New Jersey, USA
Distance from station: SSW 75mi, 120km
Updated: 07/21/2018 7:20pm
Rain, Mist, Overcast
Rain, Mist, Overcast
 Wind from NE
Wind: NE 7 mph , 11 km/h
Temperature: 66°F , 19°C
Dew Point: 66°F , 19°C
Humidity: 100%
Barometer: 29.88 inHg , 1011.9 hPa
Summary: Rain, Mist
Clouds: Overcast
Visibility: 2 miles , 3 km
Cloud details: Overcast 900 ft
2018/07/21 23:20 KVAY 212320Z AUTO 05006KT 2SM RA BR OVC009 19/19 A2988 RMK AO2 CIG 005V012 P0008 T01940194 $
KXLL - Allentown Queen, Pennsylvania, USA
Distance from station: WSW 76mi, 122km
Updated: 07/21/2018 7:15pm
Light rain, Overcast
Light rain, Overcast
 Wind from E
Wind: E 13 mph , 20 km/h, Gust: 22 mph , 35 km/h
Temperature: 63°F , 17°C
Dew Point: 59°F , 15°C
Humidity: 88%
Barometer: 29.96 inHg , 1014.6 hPa
Summary: Light rain
Clouds: Overcast
Visibility: 7 miles , 11 km
Cloud details: Overcast 4700 ft
2018/07/21 23:15 KXLL 212315Z AUTO 08011G19KT 7SM -RA OVC047 17/15 A2996 RMK AO2 P0001
 
KFOK - Westhampton Beac, New York, USA
Distance from station: E 77mi, 124km
Updated: 07/21/2018 7:19pm
Overcast
Overcast
 Wind from E
Wind: E 12 mph , 19 km/h, Gust: 25 mph , 41 km/h
Temperature: 68°F , 20°C
Dew Point: 61°F , 16°C
Humidity: 78%
Barometer: 30.04 inHg , 1017.3 hPa
Clouds: Overcast
Visibility: 10 miles , 16 km
Cloud details: Mostly cloudy 2700 ft
Overcast 3100 ft
2018/07/21 23:19 KFOK 212319Z 08010G22KT 10SM BKN027 OVC031 20/16 A3004 RMK AO2 T02000161 $
KLOM - Philly Wings F, Pennsylvania, USA
Distance from station: SW 79mi, 128km
Updated: 07/21/2018 7:15pm
Overcast
Overcast
 Wind from ENE
Wind: ENE 9 mph , 15 km/h, Gust: 17 mph , 28 km/h
Temperature: 63°F , 17°C
Dew Point: 63°F , 17°C
Humidity: 100%
Barometer: 29.91 inHg , 1012.9 hPa
Clouds: Overcast
Visibility: 5 miles , 8 km
Cloud details: Partly cloudy 700 ft
Mostly cloudy 1400 ft
Overcast 3300 ft
2018/07/21 23:15 KLOM 212315Z AUTO 06008G15KT 5SM SCT007 BKN014 OVC033 17/17 A2991 RMK AO1
 
KMMK - Meriden, Connecticut, USA
Distance from station: NE 80mi, 128km
Updated: 07/21/2018 6:53pm
Partly cloudy
Partly cloudy
 Wind from SE
Wind: SE 7 mph , 11 km/h
Temperature: 73°F , 23°C
Dew Point: 57°F , 14°C
Humidity: 57%
Barometer: 30.06 inHg , 1017.9 hPa
Clouds: Partly cloudy
Visibility: 10 miles , 16 km
Cloud details: Partly cloudy 5500 ft
2018/07/21 22:53 KMMK 212253Z AUTO 14006KT 10SM SCT055 23/14 A3006 RMK AO2 SLP176 T02280139 $
KPTW - Pottstown, Pennsylvania, USA
Distance from station: WSW 88mi, 141km
Updated: 07/21/2018 6:54pm
Light rain, Mist, Overcast
Light rain, Mist, Overcast
 Wind from ENE
Wind: ENE 13 mph , 20 km/h, Gust: 24 mph , 39 km/h
Temperature: 63°F , 17°C
Dew Point: 63°F , 17°C
Humidity: 100%
Barometer: 29.93 inHg , 1013.5 hPa
Summary: Light rain, Mist
Clouds: Overcast
Visibility: 4 miles , 6 km
Cloud details: Few Clouds 1000 ft
Partly cloudy 1400 ft
Overcast 3500 ft
2018/07/21 22:54 KPTW 212254Z AUTO 06011G21KT 4SM -RA BR FEW010 SCT014 OVC035 17/17 A2993 RMK AO2 SLP133 P0008 T01670167
 
KSNC - Chester, Connecticut, USA
Distance from station: ENE 90mi, 146km
Updated: 07/21/2018 7:15pm
Partly cloudy
Partly cloudy
 Wind from ESE
Wind: ESE 6 mph , 9 km/h, Gust: 14 mph , 22 km/h
Temperature: 70°F , 21°C
Dew Point: 61°F , 16°C
Humidity: 73%
Barometer: 30.07 inHg , 1018.3 hPa
Clouds: Partly cloudy
Visibility: 10 miles , 16 km
Cloud details: Partly cloudy 4700 ft
2018/07/21 23:15 KSNC 212315Z AUTO 11005G12KT 10SM SCT047 21/16 A3007 RMK AO2
KPHL - Philadelphia, Pennsylvania, USA
Distance from station: SW 91mi, 146km
Updated: 07/21/2018 7:19pm
Light rain, Mist, Overcast
Light rain, Mist, Overcast
 Wind from ENE
Wind: ENE 16 mph , 26 km/h, Gust: 29 mph , 46 km/h
Temperature: 66°F , 19°C
Dew Point: 64°F , 18°C
Humidity: 94%
Barometer: 29.87 inHg , 1011.5 hPa
Summary: Light rain, Mist
Clouds: Overcast
Visibility: 3 miles , 5 km
Cloud details: Partly cloudy 900 ft
Overcast 1400 ft
2018/07/21 23:19 KPHL 212319Z 06014G25KT 3SM R09R/5500VP6000FT -RA BR SCT009 OVC014 19/18 A2987 RMK AO2 PK WND 04027/2305 P0009 T01890183 $
 
KAVP - Avoca/Wilkes B., Pennsylvania, USA
Distance from station: WNW 91mi, 147km
Updated: 07/21/2018 6:54pm
Light rain, Overcast
Light rain, Overcast
 Wind from ENE
Wind: ENE 3 mph , 6 km/h
Temperature: 66°F , 19°C
Dew Point: 61°F , 16°C
Humidity: 83%
Barometer: 29.99 inHg , 1015.6 hPa
Summary: Light rain
Clouds: Overcast
Visibility: 7 miles , 11 km
Cloud details: Mostly cloudy 5500 ft
Overcast 11000 ft
2018/07/21 22:54 KAVP 212254Z 07003KT 7SM -RA BKN055 OVC110 19/16 A2999 RMK AO2 SLP150 P0004 T01890161
KHFD - Hartford/Brainar, Connecticut, USA
Distance from station: NE 96mi, 155km
Updated: 07/21/2018 6:53pm
Clear
Clear
 Wind from ESE
Wind: ESE 3 mph , 6 km/h
Temperature: 75°F , 24°C
Dew Point: 59°F , 15°C
Humidity: 57%
Barometer: 30.06 inHg , 1017.9 hPa
Clouds: Clear
Visibility: 10 miles , 16 km
2018/07/21 22:53 KHFD 212253Z 12003KT 10SM CLR 24/15 A3006 RMK AO2 SLP177 T02390150
 
KHTO - East Hampton, New York, USA
Distance from station: E 96mi, 155km
Updated: 07/21/2018 7:15pm
Overcast
Overcast
 Wind from E
Wind: E 12 mph , 19 km/h, Gust: 20 mph , 31 km/h
Temperature: 66°F , 19°C
Dew Point: 63°F , 17°C
Humidity: 88%
Barometer: 30.05 inHg , 1017.6 hPa
Clouds: Overcast
Visibility: 10 miles , 16 km
Cloud details: Overcast 1100 ft
2018/07/21 23:15 KHTO 212315Z AUTO 09010G17KT 10SM OVC011 19/17 A3005 RMK AO2 T01900166
KACY - Atlantic City, New Jersey, USA
Distance from station: SSW 99mi, 160km
Updated: 07/21/2018 6:54pm
Light rain, Mist, Overcast
Light rain, Mist, Overcast
 Wind from ESE
Wind: ESE 15 mph , 24 km/h
Temperature: 75°F , 24°C
Dew Point: 73°F , 23°C
Humidity: 94%
Barometer: 29.85 inHg , 1010.8 hPa
Summary: Light rain, Mist
Clouds: Overcast
Visibility: 1 1/2 miles , 2.4 km
Cloud details: Mostly cloudy 600 ft
Overcast 1000 ft
2018/07/21 22:54 KACY 212254Z 12013KT 1 1/2SM -RA BR BKN006 OVC010 24/23 A2985 RMK AO2 PK WND 10032/2211 SFC VIS 4 SLP108 P0021 T02390233